Time;durP1;ratioP1;P1;durP2;ratioP2;P2;SDS_P1;SDS_P2;PMS_P1;PMS_P2;Temp;Humidity;BMP_temperature;BMP_pressure;BME280_temperature;BME280_humidity;BME280_pressure;Samples;Min_cycle;Max_cycle;Signal;HPM_P1;HPM_P2
2021/12/28 00:00:25;;;;;;;4.23;2.70;;;9.60;99.90;;;;;;4981164;28;20440;-68
2021/12/28 00:02:54;;;;;;;2.43;1.60;;;9.50;99.90;;;;;;5000332;28;20463;-67
2021/12/28 00:05:21;;;;;;;3.47;2.27;;;9.50;99.90;;;;;;4993031;28;20538;-67
2021/12/28 00:07:48;;;;;;;7.63;2.50;;;9.60;99.90;;;;;;5002606;28;20979;-67
2021/12/28 00:10:17;;;;;;;4.90;1.90;;;9.70;99.90;;;;;;5000289;28;20497;-67
2021/12/28 00:12:44;;;;;;;1.40;1.13;;;9.70;99.90;;;;;;5013451;28;20547;-67
2021/12/28 00:15:32;;;;;;;2.10;1.90;;;9.70;99.90;;;;;;5001547;28;20500;-67
2021/12/28 00:18:02;;;;;;;3.87;2.30;;;9.60;99.90;;;;;;5002724;28;20474;-68
2021/12/28 00:20:29;;;;;;;1.93;1.73;;;9.70;99.90;;;;;;5003739;28;20461;-67
2021/12/28 00:22:57;;;;;;;3.00;2.67;;;9.50;99.90;;;;;;5002730;28;20461;-67
2021/12/28 00:25:24;;;;;;;2.20;2.00;;;9.60;99.90;;;;;;4996361;28;20493;-66
2021/12/28 00:27:52;;;;;;;2.27;1.57;;;9.60;99.90;;;;;;4999687;28;21009;-66
2021/12/28 00:30:21;;;;;;;2.90;1.83;;;9.80;99.90;;;;;;4979649;28;20462;-66
2021/12/28 00:32:52;;;;;;;4.67;2.20;;;9.80;99.90;;;;;;5001037;28;20458;-67
2021/12/28 00:35:22;;;;;;;1.90;1.73;;;9.80;99.90;;;;;;4987292;28;20471;-66
2021/12/28 00:37:49;;;;;;;2.67;2.07;;;9.70;99.90;;;;;;4996249;28;20467;-67
2021/12/28 00:40:17;;;;;;;4.80;2.10;;;9.60;99.90;;;;;;4994250;28;20497;-67
2021/12/28 00:42:45;;;;;;;3.40;2.40;;;9.60;99.90;;;;;;4998067;28;20493;-67
2021/12/28 00:45:13;;;;;;;3.40;2.60;;;9.60;99.90;;;;;;4993382;28;20616;-65
2021/12/28 00:47:41;;;;;;;3.63;2.00;;;9.70;99.90;;;;;;5010377;28;20855;-68
2021/12/28 00:50:11;;;;;;;7.57;3.70;;;9.60;99.90;;;;;;5010616;28;20898;-67
2021/12/28 00:52:39;;;;;;;2.23;2.03;;;9.60;99.90;;;;;;5015501;28;20553;-67
2021/12/28 00:55:07;;;;;;;3.03;2.10;;;9.60;99.90;;;;;;5004882;28;20956;-68
2021/12/28 00:57:35;;;;;;;3.50;2.57;;;9.60;99.90;;;;;;4993788;28;21438;-67
2021/12/28 01:00:03;;;;;;;2.20;1.70;;;9.50;99.90;;;;;;4996432;28;20438;-67
2021/12/28 01:02:30;;;;;;;2.83;2.07;;;9.40;99.90;;;;;;5002586;28;20485;-67
2021/12/28 01:04:58;;;;;;;1.50;1.30;;;9.40;99.90;;;;;;4983164;28;20459;-67
2021/12/28 01:07:25;;;;;;;1.50;1.40;;;9.30;99.90;;;;;;4993831;28;21001;-66
2021/12/28 01:09:53;;;;;;;4.00;2.20;;;9.30;99.90;;;;;;4994054;28;21459;-67
2021/12/28 01:12:20;;;;;;;2.87;2.00;;;9.20;99.90;;;;;;4993482;28;20452;-68
2021/12/28 01:14:47;;;;;;;3.73;1.47;;;9.20;99.90;;;;;;4982270;28;20790;-67
2021/12/28 01:17:13;;;;;;;3.73;3.40;;;9.10;99.90;;;;;;4995391;28;20452;-67
2021/12/28 01:19:41;;;;;;;5.10;2.40;;;9.10;99.90;;;;;;4989288;28;20457;-67
2021/12/28 01:22:10;;;;;;;2.43;2.00;;;9.00;99.90;;;;;;4985502;28;20472;-67
2021/12/28 01:24:37;;;;;;;2.90;1.70;;;9.00;99.90;;;;;;4990821;28;20510;-68
2021/12/28 01:27:04;;;;;;;5.10;2.47;;;9.00;99.90;;;;;;4984838;28;20464;-68
2021/12/28 01:29:32;;;;;;;8.30;2.10;;;9.10;99.90;;;;;;4988572;28;20580;-67
2021/12/28 01:32:00;;;;;;;4.20;1.87;;;9.00;99.90;;;;;;4991590;28;20435;-67
2021/12/28 01:34:27;;;;;;;8.00;2.93;;;8.90;99.90;;;;;;4988391;28;20976;-68
2021/12/28 01:36:54;;;;;;;5.30;2.03;;;8.90;99.90;;;;;;5002518;28;20481;-68
2021/12/28 01:39:22;;;;;;;3.33;2.13;;;9.00;99.90;;;;;;5003217;28;20534;-68
2021/12/28 01:41:49;;;;;;;6.57;2.10;;;8.90;99.90;;;;;;4993906;28;20472;-68
2021/12/28 01:44:17;;;;;;;3.33;2.47;;;8.80;99.90;;;;;;4993803;28;20726;-68
2021/12/28 01:46:44;;;;;;;5.60;2.30;;;8.80;99.90;;;;;;4994765;28;20555;-68
2021/12/28 01:49:12;;;;;;;4.00;1.90;;;8.70;99.90;;;;;;4978335;28;20521;-68
2021/12/28 01:51:39;;;;;;;4.87;2.00;;;8.70;99.90;;;;;;4996063;28;20460;-67
2021/12/28 01:54:07;;;;;;;4.97;2.70;;;8.60;99.90;;;;;;4995410;28;21007;-67
2021/12/28 01:56:40;;;;;;;5.13;2.37;;;8.60;99.90;;;;;;4987807;28;20560;-68
2021/12/28 01:59:08;;;;;;;2.87;1.80;;;8.60;99.90;;;;;;4997536;28;20452;-67
2021/12/28 02:01:35;;;;;;;4.40;2.03;;;8.60;99.90;;;;;;4998455;28;21306;-69
2021/12/28 02:04:03;;;;;;;3.90;2.10;;;8.60;99.90;;;;;;4995618;28;20502;-67
2021/12/28 02:06:30;;;;;;;10.40;2.93;;;8.50;99.90;;;;;;4993265;28;20438;-68
2021/12/28 02:08:57;;;;;;;3.30;1.33;;;8.50;99.90;;;;;;4989856;28;20590;-67
2021/12/28 02:11:24;;;;;;;2.50;2.27;;;8.50;99.90;;;;;;4997855;28;20437;-68
2021/12/28 02:13:53;;;;;;;2.17;1.97;;;8.40;99.90;;;;;;5002754;28;21003;-68
2021/12/28 02:16:20;;;;;;;8.20;2.77;;;8.50;99.90;;;;;;5000927;28;20555;-67
2021/12/28 02:18:47;;;;;;;1.50;1.40;;;8.40;99.90;;;;;;5000796;28;20447;-67
2021/12/28 02:21:15;;;;;;;2.03;1.80;;;8.30;99.90;;;;;;4988654;28;20464;-67
2021/12/28 02:23:42;;;;;;;3.80;2.43;;;8.40;99.90;;;;;;4994439;28;20810;-68
2021/12/28 02:26:09;;;;;;;2.23;1.40;;;8.50;99.90;;;;;;4987866;28;20565;-68
2021/12/28 02:28:37;;;;;;;3.30;1.40;;;8.50;99.90;;;;;;4994287;28;20436;-67
2021/12/28 02:31:04;;;;;;;2.60;1.67;;;8.40;99.90;;;;;;4999594;28;20569;-68
2021/12/28 02:33:31;;;;;;;2.07;1.97;;;8.30;99.90;;;;;;4992007;28;20463;-68
2021/12/28 02:36:01;;;;;;;3.10;1.77;;;8.30;99.90;;;;;;4990382;28;20461;-68
2021/12/28 02:38:31;;;;;;;2.90;2.33;;;8.40;99.90;;;;;;4991853;28;20542;-68
2021/12/28 02:40:58;;;;;;;2.33;2.13;;;8.30;99.90;;;;;;4986183;28;20472;-67
2021/12/28 02:43:26;;;;;;;3.07;1.70;;;8.40;99.90;;;;;;4997864;28;20913;-68
2021/12/28 02:45:55;;;;;;;3.10;1.60;;;8.40;99.90;;;;;;4993240;28;20698;-67
2021/12/28 02:48:23;;;;;;;1.87;1.37;;;8.20;99.90;;;;;;4995189;28;20745;-68
2021/12/28 02:50:54;;;;;;;8.33;1.60;;;8.30;99.90;;;;;;4981742;28;20733;-68
2021/12/28 02:53:21;;;;;;;2.53;2.00;;;8.30;99.90;;;;;;4995891;28;20475;-67
2021/12/28 02:55:50;;;;;;;3.57;1.83;;;8.30;99.90;;;;;;4991993;28;20539;-67
2021/12/28 02:58:29;;;;;;;1.90;1.73;;;8.30;99.90;;;;;;4989989;28;20594;-67
2021/12/28 03:00:59;;;;;;;13.03;1.90;;;8.40;99.90;;;;;;4994367;28;21084;-68
2021/12/28 03:03:29;;;;;;;3.00;1.93;;;8.40;99.90;;;;;;5000643;28;20603;-67
2021/12/28 03:05:58;;;;;;;5.33;1.80;;;8.50;99.90;;;;;;4993295;28;20461;-67
2021/12/28 03:08:28;;;;;;;4.40;1.67;;;8.50;99.90;;;;;;4993513;28;20969;-67
2021/12/28 03:10:58;;;;;;;5.30;1.93;;;8.40;99.90;;;;;;4995096;28;20928;-68
2021/12/28 03:13:28;;;;;;;4.00;1.87;;;8.50;99.90;;;;;;4992445;28;20476;-67
2021/12/28 03:15:56;;;;;;;8.70;1.67;;;8.50;99.90;;;;;;4985550;28;20464;-68
2021/12/28 03:18:23;;;;;;;2.43;1.63;;;8.40;99.90;;;;;;4991682;28;20567;-67
2021/12/28 03:20:51;;;;;;;7.83;3.00;;;8.40;99.90;;;;;;4990176;28;20441;-67
2021/12/28 03:23:20;;;;;;;9.07;1.80;;;8.40;99.90;;;;;;4995035;28;20522;-67
2021/12/28 03:25:48;;;;;;;5.23;1.77;;;8.40;99.90;;;;;;4990361;28;20974;-68
2021/12/28 03:28:19;;;;;;;5.23;2.50;;;8.30;99.90;;;;;;4995474;28;20457;-67
2021/12/28 03:30:47;;;;;;;6.13;1.80;;;8.30;99.90;;;;;;4993165;28;20467;-68
2021/12/28 03:33:14;;;;;;;4.73;1.80;;;8.20;99.90;;;;;;5003843;28;20531;-67
2021/12/28 03:35:42;;;;;;;3.90;2.30;;;8.20;99.90;;;;;;5002224;28;21626;-67
2021/12/28 03:38:09;;;;;;;4.53;1.77;;;8.20;99.90;;;;;;5002936;28;20615;-67
2021/12/28 03:40:36;;;;;;;5.90;1.83;;;8.20;99.90;;;;;;5004041;28;20795;-67
2021/12/28 03:43:03;;;;;;;3.97;2.00;;;8.20;99.90;;;;;;5005038;28;20515;-68
2021/12/28 03:45:32;;;;;;;7.17;2.57;;;8.10;99.90;;;;;;4996025;28;20460;-68
2021/12/28 03:47:59;;;;;;;1.50;1.27;;;8.20;99.90;;;;;;5006433;28;20538;-68
2021/12/28 03:50:29;;;;;;;2.47;2.27;;;8.30;99.90;;;;;;5007463;28;20529;-67
2021/12/28 03:52:57;;;;;;;2.30;1.77;;;8.20;99.90;;;;;;4990342;28;20556;-67
2021/12/28 03:55:25;;;;;;;5.10;1.83;;;8.20;99.90;;;;;;4992896;28;20498;-67
2021/12/28 03:57:59;;;;;;;3.17;1.73;;;8.20;99.90;;;;;;4985316;28;20583;-68
2021/12/28 04:00:28;;;;;;;3.83;1.70;;;8.20;99.90;;;;;;4990929;28;20626;-69
2021/12/28 04:02:57;;;;;;;2.63;1.77;;;8.20;99.90;;;;;;4945388;28;20453;-68
2021/12/28 04:05:24;;;;;;;4.40;2.50;;;8.20;99.90;;;;;;4977760;28;20451;-69
2021/12/28 04:07:51;;;;;;;2.00;1.80;;;8.20;99.90;;;;;;4976369;28;20450;-68
2021/12/28 04:10:27;;;;;;;9.97;1.97;;;8.20;99.90;;;;;;4985510;28;20455;-68
2021/12/28 04:12:55;;;;;;;8.07;2.27;;;8.10;99.90;;;;;;4987816;28;20449;-67
2021/12/28 04:15:22;;;;;;;3.23;2.27;;;8.10;99.90;;;;;;4985300;28;20510;-67
2021/12/28 04:17:49;;;;;;;4.00;2.00;;;8.10;99.90;;;;;;4991675;28;20536;-68
2021/12/28 04:20:19;;;;;;;2.03;1.80;;;8.00;99.90;;;;;;4984319;28;21132;-67
2021/12/28 04:22:47;;;;;;;2.00;1.50;;;8.00;99.90;;;;;;4982920;28;20539;-68
2021/12/28 04:25:16;;;;;;;5.87;2.00;;;8.10;99.90;;;;;;4991832;28;20514;-68
2021/12/28 04:27:44;;;;;;;5.13;2.37;;;8.10;99.90;;;;;;5005068;28;20878;-68
2021/12/28 04:30:13;;;;;;;2.80;2.50;;;8.10;99.90;;;;;;5004218;28;20480;-68
2021/12/28 04:32:40;;;;;;;4.67;1.80;;;8.00;99.90;;;;;;5007814;28;20548;-67
2021/12/28 04:35:08;;;;;;;7.00;2.40;;;8.00;99.90;;;;;;4987254;28;20677;-68
2021/12/28 04:37:37;;;;;;;6.57;3.77;;;8.00;99.90;;;;;;4978337;28;20463;-67
2021/12/28 04:40:06;;;;;;;17.03;3.67;;;8.00;99.90;;;;;;4983062;28;20554;-68
2021/12/28 04:42:33;;;;;;;2.20;1.87;;;8.00;99.90;;;;;;4989251;28;20488;-67
2021/12/28 04:45:00;;;;;;;7.67;2.10;;;8.00;99.90;;;;;;4986082;28;20574;-67
2021/12/28 04:47:27;;;;;;;3.70;1.60;;;8.00;99.90;;;;;;4989031;28;20591;-67
2021/12/28 04:49:54;;;;;;;8.40;1.97;;;8.10;99.90;;;;;;4987762;28;20520;-68
2021/12/28 04:52:23;;;;;;;2.90;2.70;;;8.20;99.90;;;;;;4984415;28;20464;-67
2021/12/28 04:54:51;;;;;;;5.23;1.40;;;8.60;99.90;;;;;;4970384;28;20476;-68
2021/12/28 04:57:18;;;;;;;2.23;1.90;;;8.70;99.90;;;;;;4976286;28;20555;-68
2021/12/28 04:59:45;;;;;;;2.70;1.70;;;8.80;99.90;;;;;;4986077;28;21147;-68
2021/12/28 05:02:12;;;;;;;8.37;2.43;;;8.90;99.90;;;;;;4976916;28;20591;-69
2021/12/28 05:04:39;;;;;;;4.13;1.90;;;8.90;99.90;;;;;;4986071;28;21032;-68
2021/12/28 05:07:06;;;;;;;7.83;1.90;;;9.00;99.90;;;;;;4992696;28;20459;-68
2021/12/28 05:09:39;;;;;;;6.97;3.67;;;9.10;99.90;;;;;;4987808;28;20954;-68
2021/12/28 05:12:09;;;;;;;5.07;1.97;;;9.20;99.90;;;;;;4964145;28;20514;-67
2021/12/28 05:14:39;;;;;;;9.90;2.17;;;9.10;99.90;;;;;;4986211;28;20494;-68
2021/12/28 05:17:07;;;;;;;9.67;2.93;;;9.20;99.90;;;;;;4986480;28;20453;-67
2021/12/28 05:19:34;;;;;;;36.57;3.23;;;9.20;99.90;;;;;;4987016;28;20455;-68
2021/12/28 05:22:01;;;;;;;3.93;2.00;;;9.30;99.90;;;;;;4991630;28;21509;-66
2021/12/28 05:24:28;;;;;;;3.67;1.63;;;9.30;99.90;;;;;;4990461;28;20527;-67
2021/12/28 05:26:55;;;;;;;2.00;1.63;;;9.20;99.90;;;;;;4968672;28;21007;-67
2021/12/28 05:29:24;;;;;;;6.17;1.50;;;9.10;99.90;;;;;;4987351;28;20470;-67
2021/12/28 05:31:51;;;;;;;3.37;1.90;;;9.30;99.90;;;;;;4986204;28;20483;-67
2021/12/28 05:34:17;;;;;;;8.13;2.30;;;9.30;99.90;;;;;;4982194;28;20648;-68
2021/12/28 05:36:46;;;;;;;4.60;1.67;;;9.30;99.90;;;;;;4978034;28;20461;-67
2021/12/28 05:39:13;;;;;;;4.73;2.03;;;9.30;99.90;;;;;;4984952;28;20443;-67
2021/12/28 05:41:41;;;;;;;3.87;1.43;;;9.20;99.90;;;;;;4977841;28;20554;-67
2021/12/28 05:44:08;;;;;;;5.07;2.33;;;9.20;99.90;;;;;;4993766;28;20605;-67
2021/12/28 05:46:38;;;;;;;4.97;2.67;;;9.40;99.90;;;;;;4981902;28;20468;-68
2021/12/28 05:49:05;;;;;;;2.97;1.60;;;9.30;99.90;;;;;;4979867;28;20461;-67
2021/12/28 05:51:32;;;;;;;2.60;1.70;;;9.30;99.90;;;;;;4989501;28;20469;-67
2021/12/28 05:53:59;;;;;;;8.50;2.17;;;9.30;99.90;;;;;;4982389;28;20559;-67
2021/12/28 05:56:26;;;;;;;13.67;2.50;;;9.30;99.90;;;;;;4968540;28;20537;-66
2021/12/28 05:58:53;;;;;;;2.60;1.87;;;9.20;99.90;;;;;;4979498;28;20614;-66
2021/12/28 06:01:20;;;;;;;3.43;1.93;;;9.20;99.90;;;;;;4989780;28;20573;-68
2021/12/28 06:03:48;;;;;;;7.40;2.70;;;9.20;99.90;;;;;;4991201;28;20517;-66
2021/12/28 06:06:15;;;;;;;4.87;2.00;;;9.20;99.90;;;;;;4981042;28;20468;-67
2021/12/28 06:08:42;;;;;;;6.57;1.93;;;9.20;99.90;;;;;;4991165;28;20471;-69
2021/12/28 06:11:12;;;;;;;3.10;1.50;;;9.20;99.90;;;;;;4979240;28;20488;-68
2021/12/28 06:13:41;;;;;;;4.57;1.23;;;9.20;99.90;;;;;;4993304;28;20472;-66
2021/12/28 06:16:09;;;;;;;1.57;1.47;;;9.20;99.90;;;;;;4990893;28;20492;-67
2021/12/28 06:18:35;;;;;;;7.40;2.10;;;9.30;99.90;;;;;;4989290;28;20509;-67
2021/12/28 06:21:04;;;;;;;3.37;1.80;;;9.40;99.90;;;;;;4993767;28;20567;-67
2021/12/28 06:23:31;;;;;;;4.13;1.40;;;9.30;99.90;;;;;;4987324;28;20452;-66
2021/12/28 06:25:58;;;;;;;1.87;1.77;;;9.30;99.90;;;;;;4975770;28;20465;-66
2021/12/28 06:28:26;;;;;;;3.43;2.00;;;9.40;99.90;;;;;;4974104;28;20908;-66
2021/12/28 06:30:53;;;;;;;3.23;1.13;;;9.40;99.90;;;;;;4979718;28;20597;-67
2021/12/28 06:33:20;;;;;;;6.00;1.10;;;9.30;99.90;;;;;;4987941;28;20439;-66
2021/12/28 06:35:49;;;;;;;2.37;1.53;;;9.40;99.90;;;;;;4987681;28;20460;-67
2021/12/28 06:38:18;;;;;;;1.50;1.30;;;9.40;99.90;;;;;;4997328;28;20510;-67
2021/12/28 06:40:46;;;;;;;2.00;1.80;;;9.50;99.90;;;;;;4994249;28;20518;-67
2021/12/28 06:43:14;;;;;;;3.53;1.60;;;9.40;99.90;;;;;;4983439;28;21686;-67
2021/12/28 06:45:41;;;;;;;4.03;1.60;;;9.50;99.90;;;;;;4995312;28;20598;-67
2021/12/28 06:48:08;;;;;;;4.73;1.83;;;9.50;99.90;;;;;;5000429;28;20550;-67
2021/12/28 06:50:35;;;;;;;1.27;1.17;;;9.60;99.90;;;;;;4993632;28;20480;-69
2021/12/28 06:53:02;;;;;;;4.83;2.50;;;9.70;99.90;;;;;;4985115;28;20977;-68
2021/12/28 06:55:31;;;;;;;3.80;1.80;;;9.60;99.90;;;;;;4994782;28;20491;-68
2021/12/28 06:57:58;;;;;;;5.07;2.03;;;9.60;99.90;;;;;;4993989;28;20435;-67
2021/12/28 07:00:25;;;;;;;1.70;1.23;;;9.60;99.90;;;;;;4998008;28;20682;-67
2021/12/28 07:02:52;;;;;;;3.50;1.40;;;9.60;99.90;;;;;;4991010;28;20602;-67
2021/12/28 07:05:19;;;;;;;11.70;1.93;;;9.60;99.90;;;;;;4987351;28;21538;-65
2021/12/28 07:07:46;;;;;;;3.90;2.13;;;9.60;99.90;;;;;;4997958;28;20432;-67
2021/12/28 07:10:13;;;;;;;5.23;1.67;;;9.50;99.90;;;;;;4994516;28;20584;-67
2021/12/28 07:12:43;;;;;;;1.40;1.10;;;9.60;99.90;;;;;;4994808;28;20464;-67
2021/12/28 07:15:10;;;;;;;3.50;1.37;;;9.60;99.90;;;;;;4985594;28;20461;-67
2021/12/28 07:17:39;;;;;;;2.47;2.07;;;9.60;99.90;;;;;;4999348;28;20606;-66
2021/12/28 07:20:08;;;;;;;5.87;2.17;;;9.60;99.90;;;;;;4998192;28;20453;-67
2021/12/28 07:22:35;;;;;;;1.50;1.40;;;9.60;99.90;;;;;;4990795;28;20472;-67
2021/12/28 07:25:03;;;;;;;4.93;2.17;;;9.50;99.90;;;;;;4988585;28;21234;-67
2021/12/28 07:27:31;;;;;;;1.67;1.57;;;9.50;99.90;;;;;;4980133;28;20475;-67
2021/12/28 07:30:00;;;;;;;3.63;2.90;;;9.60;99.90;;;;;;4993537;28;20427;-67
2021/12/28 07:32:27;;;;;;;3.23;1.80;;;9.50;99.90;;;;;;5001871;28;20654;-67
2021/12/28 07:34:54;;;;;;;2.60;1.80;;;9.50;99.90;;;;;;4997495;28;20498;-67
2021/12/28 07:37:21;;;;;;;1.60;1.40;;;9.50;99.90;;;;;;4985100;28;20527;-67
2021/12/28 07:39:50;;;;;;;3.70;1.20;;;9.50;99.90;;;;;;4994647;28;20456;-66
2021/12/28 07:42:17;;;;;;;2.00;1.50;;;9.50;99.90;;;;;;4995121;28;20630;-67
2021/12/28 07:44:44;;;;;;;1.57;1.40;;;9.50;99.90;;;;;;4990526;28;20476;-69
2021/12/28 07:47:12;;;;;;;1.10;1.00;;;9.50;99.90;;;;;;4992560;28;20987;-67
2021/12/28 07:49:40;;;;;;;6.83;1.40;;;9.50;99.90;;;;;;4991024;28;20436;-68
2021/12/28 07:52:08;;;;;;;4.33;1.30;;;9.60;99.90;;;;;;4992848;28;20605;-68
2021/12/28 07:54:35;;;;;;;1.10;1.00;;;9.60;99.90;;;;;;4991079;28;20476;-68
2021/12/28 07:57:02;;;;;;;2.90;1.47;;;9.50;99.90;;;;;;4997388;28;20449;-67
2021/12/28 07:59:29;;;;;;;3.97;1.83;;;9.40;99.90;;;;;;4988232;28;20553;-68
2021/12/28 08:01:56;;;;;;;1.63;1.13;;;9.50;99.90;;;;;;4974037;28;21865;-67
2021/12/28 08:04:27;;;;;;;1.53;1.30;;;9.50;99.90;;;;;;4989919;28;20484;-68
2021/12/28 08:06:54;;;;;;;1.87;1.60;;;9.50;99.90;;;;;;4990271;28;21517;-69
2021/12/28 08:09:22;;;;;;;2.33;2.13;;;9.50;99.90;;;;;;4985492;28;21541;-67
2021/12/28 08:11:49;;;;;;;1.53;1.13;;;9.50;99.90;;;;;;4992775;28;20495;-68
2021/12/28 08:14:16;;;;;;;4.70;1.73;;;9.60;99.90;;;;;;4991895;28;20459;-70
2021/12/28 08:16:43;;;;;;;3.50;1.30;;;9.70;99.90;;;;;;4994791;28;20461;-68
2021/12/28 08:19:09;;;;;;;1.97;1.10;;;9.80;99.90;;;;;;4989269;28;20506;-68
2021/12/28 08:21:38;;;;;;;1.60;1.50;;;9.90;99.90;;;;;;4990427;28;20464;-67
2021/12/28 08:24:06;;;;;;;3.80;1.40;;;10.00;99.90;;;;;;4976297;28;20997;-67
2021/12/28 08:26:33;;;;;;;5.43;1.50;;;9.90;99.90;;;;;;4974964;28;26335;-66
2021/12/28 08:29:00;;;;;;;9.20;1.70;;;10.00;99.90;;;;;;4985945;28;20997;-66
2021/12/28 08:31:28;;;;;;;1.93;1.60;;;10.10;99.90;;;;;;4986266;28;20518;-67
2021/12/28 08:33:56;;;;;;;24.93;2.03;;;10.10;99.90;;;;;;5000089;28;20529;-67
2021/12/28 08:36:23;;;;;;;5.90;1.27;;;10.10;99.90;;;;;;5003201;28;21170;-67
2021/12/28 08:38:51;;;;;;;1.40;0.90;;;10.00;99.90;;;;;;4984761;28;20460;-67
2021/12/28 08:41:18;;;;;;;1.20;1.10;;;10.00;99.90;;;;;;4974708;28;20460;-67
2021/12/28 08:43:46;;;;;;;2.50;1.30;;;10.10;99.90;;;;;;4969154;28;20458;-67
2021/12/28 08:46:13;;;;;;;2.50;1.20;;;10.10;99.90;;;;;;4978472;28;21126;-67
2021/12/28 08:48:40;;;;;;;1.93;1.33;;;10.20;99.90;;;;;;4986827;28;20432;-65
2021/12/28 08:51:08;;;;;;;1.30;1.20;;;10.30;99.90;;;;;;4976106;28;20484;-67
2021/12/28 08:53:35;;;;;;;1.30;1.10;;;10.40;99.90;;;;;;4978096;28;21017;-66
2021/12/28 08:56:04;;;;;;;1.40;1.27;;;10.40;99.90;;;;;;4991829;28;20796;-66
2021/12/28 08:58:31;;;;;;;2.40;1.50;;;10.50;99.90;;;;;;4984301;28;20447;-67
2021/12/28 09:01:00;;;;;;;4.20;1.17;;;10.50;99.90;;;;;;4983931;28;20475;-67
2021/12/28 09:03:27;;;;;;;1.20;0.83;;;10.50;99.90;;;;;;4997947;28;20543;-66
2021/12/28 09:05:55;;;;;;;3.53;0.97;;;10.60;99.90;;;;;;4988942;28;21070;-66
2021/12/28 09:08:22;;;;;;;1.00;0.90;;;10.60;99.90;;;;;;4969286;28;20554;-67
2021/12/28 09:10:49;;;;;;;1.30;1.10;;;10.50;99.90;;;;;;4981506;28;20551;-67
2021/12/28 09:13:18;;;;;;;1.33;0.80;;;10.60;99.90;;;;;;4972469;28;20484;-67
2021/12/28 09:15:45;;;;;;;1.10;0.80;;;10.50;99.90;;;;;;4996244;28;21146;-66
2021/12/28 09:18:12;;;;;;;1.23;0.90;;;10.70;99.90;;;;;;4988761;28;20819;-67
2021/12/28 09:20:40;;;;;;;1.30;0.80;;;10.90;99.90;;;;;;4992146;28;20468;-69
2021/12/28 09:23:08;;;;;;;2.20;1.00;;;11.00;99.90;;;;;;4975334;28;20526;-67
2021/12/28 09:25:36;;;;;;;1.30;1.00;;;11.20;99.90;;;;;;4979168;28;20451;-66
2021/12/28 09:28:07;;;;;;;1.47;1.10;;;11.10;99.90;;;;;;4977291;28;20484;-67
2021/12/28 09:30:37;;;;;;;1.63;1.13;;;11.20;99.90;;;;;;4963836;28;20431;-67
2021/12/28 09:33:04;;;;;;;1.20;1.10;;;11.30;99.90;;;;;;4977151;28;20455;-66
2021/12/28 09:35:32;;;;;;;1.00;0.80;;;11.30;99.90;;;;;;4973008;28;20462;-66
2021/12/28 09:37:59;;;;;;;1.33;1.23;;;11.40;99.90;;;;;;4995931;28;20449;-66
2021/12/28 09:40:27;;;;;;;2.80;1.10;;;11.30;99.90;;;;;;4990333;28;20460;-67
2021/12/28 09:42:54;;;;;;;2.60;1.47;;;11.20;99.90;;;;;;4997082;28;20464;-67
2021/12/28 09:45:21;;;;;;;1.10;0.90;;;11.20;99.90;;;;;;4988230;28;20991;-67
2021/12/28 09:47:49;;;;;;;1.00;0.73;;;11.20;99.90;;;;;;4968253;28;23329;-67
2021/12/28 09:50:17;;;;;;;1.20;0.93;;;11.20;99.90;;;;;;4994482;28;20507;-67
2021/12/28 09:52:45;;;;;;;2.60;0.90;;;11.00;99.90;;;;;;4991684;28;20583;-67
2021/12/28 09:55:13;;;;;;;1.97;1.30;;;11.00;99.90;;;;;;4998060;28;20485;-67
2021/12/28 09:57:41;;;;;;;1.00;0.90;;;11.00;99.90;;;;;;4965074;28;21239;-67
2021/12/28 10:00:10;;;;;;;1.53;1.00;;;11.30;99.90;;;;;;4966098;28;20476;-69
2021/12/28 10:02:37;;;;;;;2.60;1.10;;;11.30;99.90;;;;;;4974365;28;20435;-68
2021/12/28 10:05:09;;;;;;;1.23;0.90;;;11.60;99.90;;;;;;4968191;28;21012;-67
2021/12/28 10:07:44;;;;;;;0.93;0.70;;;11.90;99.90;;;;;;4992740;28;20468;-68
2021/12/28 10:10:12;;;;;;;3.00;0.90;;;11.70;99.90;;;;;;4975118;28;20620;-68
2021/12/28 10:12:42;;;;;;;1.00;0.90;;;11.70;99.90;;;;;;4985289;28;21235;-67
2021/12/28 10:15:12;;;;;;;1.20;1.00;;;11.80;99.90;;;;;;4990004;28;20809;-67
2021/12/28 10:17:42;;;;;;;1.50;0.80;;;11.70;99.90;;;;;;4985908;28;20508;-68
2021/12/28 10:20:14;;;;;;;0.97;0.70;;;11.80;99.90;;;;;;5002739;28;20507;-67
2021/12/28 10:22:46;;;;;;;1.20;0.93;;;11.90;99.90;;;;;;4997125;28;20460;-68
2021/12/28 10:25:17;;;;;;;1.10;0.87;;;11.70;99.90;;;;;;5000201;28;20478;-67
2021/12/28 10:27:45;;;;;;;2.10;1.27;;;11.70;99.90;;;;;;4996671;28;20511;-67
2021/12/28 10:30:15;;;;;;;1.00;0.77;;;11.60;99.90;;;;;;4995553;28;20501;-67
2021/12/28 10:32:44;;;;;;;0.90;0.80;;;11.60;99.90;;;;;;5002689;28;20613;-68
2021/12/28 10:35:17;;;;;;;0.90;0.70;;;11.60;99.90;;;;;;4988671;28;21834;-67
2021/12/28 10:37:47;;;;;;;1.00;0.80;;;11.50;99.90;;;;;;4994213;28;22878;-69
2021/12/28 10:40:22;;;;;;;0.90;0.70;;;11.40;99.90;;;;;;4978957;28;20504;-69
2021/12/28 10:43:03;;;;;;;1.23;0.90;;;11.40;99.90;;;;;;4997479;28;20451;-68
2021/12/28 10:45:36;;;;;;;1.27;0.90;;;11.40;99.90;;;;;;4978837;28;21317;-67
2021/12/28 10:48:09;;;;;;;1.00;0.70;;;11.30;99.90;;;;;;4988386;28;20945;-68
2021/12/28 10:50:43;;;;;;;1.00;0.80;;;11.20;99.90;;;;;;5007681;28;20784;-67
2021/12/28 10:53:19;;;;;;;1.40;1.00;;;11.20;99.90;;;;;;5000899;28;20934;-68
2021/12/28 10:55:48;;;;;;;1.87;1.00;;;11.10;99.90;;;;;;4999521;28;20483;-67
2021/12/28 10:58:40;;;;;;;0.90;0.70;;;11.00;99.90;;;;;;5001828;28;20510;-67
2021/12/28 11:01:11;;;;;;;1.60;1.00;;;10.80;99.90;;;;;;4999782;28;20480;-68
2021/12/28 11:03:41;;;;;;;0.90;0.70;;;10.80;99.90;;;;;;4996475;28;20513;-67
2021/12/28 11:06:13;;;;;;;1.20;0.80;;;10.90;99.90;;;;;;5001394;28;20531;-67
2021/12/28 11:08:42;;;;;;;3.03;0.83;;;10.80;99.90;;;;;;5005794;28;20599;-67
2021/12/28 11:11:12;;;;;;;1.07;0.80;;;11.00;99.90;;;;;;4996621;28;20435;-67
2021/12/28 11:13:40;;;;;;;1.00;0.87;;;11.10;99.90;;;;;;5001823;28;20562;-67
2021/12/28 11:16:09;;;;;;;1.97;1.03;;;11.00;99.90;;;;;;5001306;28;20461;-67
2021/12/28 11:18:42;;;;;;;1.27;1.03;;;11.10;99.90;;;;;;5002294;28;20457;-66
2021/12/28 11:21:19;;;;;;;1.63;0.90;;;11.00;99.90;;;;;;5005229;28;20835;-67
2021/12/28 11:23:49;;;;;;;1.47;0.90;;;11.10;99.90;;;;;;4997916;28;20510;-67
2021/12/28 11:26:20;;;;;;;1.00;0.80;;;11.00;99.90;;;;;;5002263;28;20466;-67
2021/12/28 11:28:59;;;;;;;1.63;1.00;;;10.90;99.90;;;;;;5018039;28;20464;-68
2021/12/28 11:31:30;;;;;;;1.10;0.87;;;11.00;99.90;;;;;;5017559;28;20482;-66
2021/12/28 11:34:04;;;;;;;1.90;1.20;;;11.00;99.90;;;;;;5014345;28;20502;-67
2021/12/28 11:36:35;;;;;;;1.27;0.80;;;11.10;99.90;;;;;;5005542;28;20459;-67
2021/12/28 11:39:06;;;;;;;1.10;0.77;;;11.10;99.90;;;;;;5002987;28;20930;-67
2021/12/28 11:41:34;;;;;;;1.10;0.90;;;11.10;99.90;;;;;;5001928;28;20467;-67
2021/12/28 11:44:02;;;;;;;1.10;0.97;;;11.10;99.90;;;;;;4993764;28;20486;-66
2021/12/28 11:46:30;;;;;;;1.63;1.00;;;11.00;99.90;;;;;;4998758;28;20435;-67
2021/12/28 11:48:57;;;;;;;1.00;0.80;;;11.00;99.90;;;;;;5003702;28;20606;-68
2021/12/28 11:51:25;;;;;;;1.30;0.70;;;11.00;99.90;;;;;;5001128;28;20467;-68
2021/12/28 11:53:55;;;;;;;1.00;0.80;;;10.90;99.90;;;;;;4998433;28;21339;-67
2021/12/28 11:56:27;;;;;;;1.20;0.80;;;10.90;99.90;;;;;;5007130;28;20648;-67
2021/12/28 11:58:58;;;;;;;2.37;1.30;;;10.80;99.90;;;;;;5020986;28;20554;-68
2021/12/28 12:01:53;;;;;;;1.17;0.80;;;10.80;99.90;;;;;;5021965;28;20435;-67
2021/12/28 12:04:50;;;;;;;1.67;1.10;;;10.70;99.90;;;;;;5010666;28;20575;-67
2021/12/28 12:07:31;;;;;;;1.20;1.10;;;10.80;99.90;;;;;;4995499;28;20469;-67
2021/12/28 12:10:34;;;;;;;1.10;0.80;;;10.90;99.90;;;;;;5002279;28;21669;-67
2021/12/28 12:13:15;;;;;;;1.60;1.07;;;10.90;99.90;;;;;;5000693;28;21017;-67
2021/12/28 12:15:45;;;;;;;2.00;1.23;;;11.00;99.90;;;;;;5000604;28;20513;-68
2021/12/28 12:18:16;;;;;;;1.67;1.57;;;11.00;99.90;;;;;;5020715;28;20459;-67
2021/12/28 12:21:02;;;;;;;1.13;1.00;;;11.00;99.90;;;;;;5001562;28;21206;-67
2021/12/28 12:23:39;;;;;;;1.40;1.10;;;11.00;99.90;;;;;;4999735;28;21243;-66
2021/12/28 12:26:10;;;;;;;1.63;0.90;;;10.80;99.90;;;;;;5002469;28;20447;-67
2021/12/28 12:28:43;;;;;;;1.03;0.90;;;10.80;99.90;;;;;;4999943;28;20464;-67
2021/12/28 12:31:19;;;;;;;1.40;1.20;;;10.90;99.90;;;;;;5000421;28;20543;-67
2021/12/28 12:33:46;;;;;;;1.43;1.10;;;11.10;99.90;;;;;;5002639;28;20483;-68
2021/12/28 12:36:29;;;;;;;1.43;1.00;;;11.10;99.90;;;;;;5000950;28;20431;-69
2021/12/28 12:38:57;;;;;;;1.43;1.27;;;11.00;99.90;;;;;;5005130;28;20432;-68
2021/12/28 12:41:42;;;;;;;1.30;1.00;;;11.00;99.90;;;;;;5001712;28;20451;-68
2021/12/28 12:44:12;;;;;;;1.77;1.10;;;11.00;99.90;;;;;;5002624;28;20588;-68
2021/12/28 12:46:43;;;;;;;1.20;1.03;;;11.00;99.90;;;;;;4994742;28;20472;-68
2021/12/28 12:49:14;;;;;;;1.50;1.20;;;10.80;99.90;;;;;;4997863;28;20476;-68
2021/12/28 12:51:47;;;;;;;2.30;1.23;;;10.80;99.90;;;;;;5002589;28;20485;-68
2021/12/28 12:54:21;;;;;;;1.93;1.57;;;10.80;99.90;;;;;;4999028;28;21166;-68
2021/12/28 12:57:18;;;;;;;1.40;0.87;;;10.60;99.90;;;;;;4996047;28;20514;-68
2021/12/28 12:59:49;;;;;;;1.37;1.13;;;10.70;99.90;;;;;;4998556;28;20457;-69
2021/12/28 13:02:24;;;;;;;0.90;0.60;;;10.70;99.90;;;;;;5001708;28;20525;-67